Time;durP1;ratioP1;P1;durP2;ratioP2;P2;SDS_P1;SDS_P2;PMS_P1;PMS_P2;Temp;Humidity;BMP_temperature;BMP_pressure;BME280_temperature;BME280_humidity;BME280_pressure;Samples;Min_cycle;Max_cycle;Signal;HPM_P1;HPM_P2
2022/04/25 00:00:20;;;;;;;;;;;10.80;99.90;;;;;;5024379;28;19925;-65
2022/04/25 00:02:49;;;;;;;;;;;10.70;99.90;;;;;;5031264;28;19932;-64
2022/04/25 00:05:17;;;;;;;;;;;10.70;99.90;;;;;;5030082;28;19929;-64
2022/04/25 00:07:44;;;;;;;;;;;10.70;99.90;;;;;;5032090;28;19940;-64
2022/04/25 00:10:11;;;;;;;;;;;10.70;99.90;;;;;;5033638;28;19932;-65
2022/04/25 00:12:38;;;;;;;;;;;10.60;99.90;;;;;;5030499;28;19937;-64
2022/04/25 00:15:05;;;;;;;;;;;10.60;99.90;;;;;;5034239;28;19972;-64
2022/04/25 00:17:32;;;;;;;;;;;10.50;99.90;;;;;;5028432;28;19925;-64
2022/04/25 00:19:59;;;;;;;;;;;10.50;99.90;;;;;;5034937;28;19974;-64
2022/04/25 00:22:25;;;;;;;;;;;10.50;99.90;;;;;;5046332;28;20846;-64
2022/04/25 00:24:52;;;;;;;;;;;10.50;99.90;;;;;;5030378;28;19928;-64
2022/04/25 00:27:19;;;;;;;;;;;10.40;99.90;;;;;;5030324;28;20451;-64
2022/04/25 00:29:53;;;;;;;;;;;10.40;99.90;;;;;;5030087;28;20478;-64
2022/04/25 00:32:20;;;;;;;;;;;10.40;99.90;;;;;;5032559;28;20566;-64
2022/04/25 00:34:46;;;;;;;;;;;10.40;99.90;;;;;;5033798;28;19929;-65
2022/04/25 00:37:13;;;;;;;;;;;10.30;99.90;;;;;;5043470;28;20392;-64
2022/04/25 00:39:40;;;;;;;;;;;10.30;99.90;;;;;;5036134;28;20833;-64
2022/04/25 00:42:07;;;;;;;;;;;10.30;99.90;;;;;;5036000;28;19929;-64
2022/04/25 00:44:34;;;;;;;;;;;10.30;99.90;;;;;;5036740;28;20392;-64
2022/04/25 00:47:02;;;;;;;;;;;10.30;99.90;;;;;;5029952;28;19982;-64
2022/04/25 00:49:29;;;;;;;;;;;10.30;99.90;;;;;;5035938;28;19929;-64
2022/04/25 00:51:56;;;;;;;;;;;10.20;99.90;;;;;;5044833;28;19937;-64
2022/04/25 00:54:23;;;;;;;;;;;10.30;99.90;;;;;;5029572;28;19956;-64
2022/04/25 00:56:50;;;;;;;;;;;10.30;99.90;;;;;;5034284;28;19972;-65
2022/04/25 00:59:18;;;;;;;;;;;10.30;99.90;;;;;;5032827;28;19932;-64
2022/04/25 01:01:45;;;;;;;;;;;10.30;99.90;;;;;;5030880;28;20002;-65
2022/04/25 01:04:13;;;;;;;;;;;10.40;99.90;;;;;;5032076;28;20074;-65
2022/04/25 01:06:40;;;;;;;;;;;10.40;99.90;;;;;;5030158;28;19929;-64
2022/04/25 01:09:07;;;;;;;;;;;10.40;99.90;;;;;;5030396;28;19950;-64
2022/04/25 01:11:35;;;;;;;;;;;10.40;99.90;;;;;;5036397;28;19971;-64
2022/04/25 01:14:11;;;;;;;;;;;10.40;99.90;;;;;;5048388;28;19929;-65
2022/04/25 01:16:38;;;;;;;;;;;10.40;99.90;;;;;;5036762;28;20343;-65
2022/04/25 01:19:05;;;;;;;;;;;10.40;99.90;;;;;;5036638;28;19929;-65
2022/04/25 01:21:35;;;;;;;;;;;10.50;99.90;;;;;;5028171;28;19929;-65
2022/04/25 01:29:33;;;;;;;;;;;10.50;99.90;;;;;;5028436;28;19933;-64
2022/04/25 01:32:01;;;;;;;;;;;10.50;99.90;;;;;;5030306;28;19925;-65
2022/04/25 01:34:28;;;;;;;;;;;10.50;99.90;;;;;;5028956;28;19933;-64
2022/04/25 01:36:56;;;;;;;;;;;10.40;99.90;;;;;;5032041;28;19936;-64
2022/04/25 01:39:23;;;;;;;;;;;10.50;99.90;;;;;;5031257;28;19978;-64
2022/04/25 01:41:50;;;;;;;;;;;10.50;99.90;;;;;;5031140;28;20020;-64
2022/04/25 01:44:17;;;;;;;;;;;10.50;99.90;;;;;;5034600;28;19936;-64
2022/04/25 01:46:44;;;;;;;;;;;10.50;99.90;;;;;;5019000;28;19929;-65
2022/04/25 01:49:11;;;;;;;;;;;10.50;99.90;;;;;;5035465;28;20075;-64
2022/04/25 01:51:39;;;;;;;;;;;10.50;99.90;;;;;;5030138;28;19933;-64
2022/04/25 01:54:06;;;;;;;;;;;10.50;99.90;;;;;;5031181;28;20028;-65
2022/04/25 01:56:34;;;;;;;;;;;10.50;99.90;;;;;;5035470;28;19936;-65
2022/04/25 01:59:01;;;;;;;;;;;10.50;99.90;;;;;;5030689;28;19936;-65
2022/04/25 02:01:28;;;;;;;;;;;10.50;99.90;;;;;;5030185;28;20031;-65
2022/04/25 02:03:56;;;;;;;;;;;10.60;99.90;;;;;;5034466;28;19933;-66
2022/04/25 02:06:23;;;;;;;;;;;10.60;99.90;;;;;;5040740;28;19932;-65
2022/04/25 02:08:49;;;;;;;;;;;10.60;99.90;;;;;;5035433;28;19929;-65
2022/04/25 02:11:20;;;;;;;;;;;10.70;99.90;;;;;;5034298;28;19933;-65
2022/04/25 02:13:51;;;;;;;;;;;10.60;99.90;;;;;;5035389;28;19929;-65
2022/04/25 02:16:18;;;;;;;;;;;10.70;99.90;;;;;;5035957;28;19936;-65
2022/04/25 02:18:45;;;;;;;;;;;10.70;99.90;;;;;;5032202;28;19933;-65
2022/04/25 02:21:12;;;;;;;;;;;10.70;99.90;;;;;;5037208;28;21241;-65
2022/04/25 02:23:39;;;;;;;;;;;10.70;99.90;;;;;;5040069;28;20011;-65
2022/04/25 02:26:06;;;;;;;;;;;10.70;99.90;;;;;;5035978;28;19928;-65
2022/04/25 02:28:34;;;;;;;;;;;10.70;99.90;;;;;;5036419;28;19933;-65
2022/04/25 02:31:01;;;;;;;;;;;10.70;99.90;;;;;;5034513;28;23569;-65
2022/04/25 02:33:28;;;;;;;;;;;10.70;99.90;;;;;;5033885;28;19978;-65
2022/04/25 02:35:55;;;;;;;;;;;10.60;99.90;;;;;;5031073;28;19948;-64
2022/04/25 02:38:22;;;;;;;;;;;10.70;99.90;;;;;;5022962;28;19975;-65
2022/04/25 02:41:04;;;;;;;;;;;10.70;99.90;;;;;;5036533;28;19936;-64
2022/04/25 02:43:39;;;;;;;;;;;10.70;99.90;;;;;;5040553;28;19929;-65
2022/04/25 02:46:10;;;;;;;;;;;10.70;99.90;;;;;;5034246;28;19933;-64
2022/04/25 02:48:37;;;;;;;;;;;10.70;99.90;;;;;;5033927;28;20800;-65
2022/04/25 02:51:05;;;;;;;;;;;10.70;99.90;;;;;;5034314;28;20051;-65
2022/04/25 02:53:32;;;;;;;;;;;10.70;99.90;;;;;;5033758;28;19933;-65
2022/04/25 02:55:59;;;;;;;;;;;10.70;99.90;;;;;;5024152;28;19929;-65
2022/04/25 02:58:26;;;;;;;;;;;10.80;99.90;;;;;;5038608;28;19929;-65
2022/04/25 03:00:53;;;;;;;;;;;10.80;99.90;;;;;;5034131;28;19934;-65
2022/04/25 03:03:20;;;;;;;;;;;10.80;99.90;;;;;;5038028;28;19959;-65
2022/04/25 03:05:48;;;;;;;;;;;10.80;99.90;;;;;;5034498;28;19953;-65
2022/04/25 03:08:19;;;;;;;;;;;10.90;99.90;;;;;;5032264;28;19936;-65
2022/04/25 03:10:47;;;;;;;;;;;10.90;99.90;;;;;;5035999;28;19976;-65
2022/04/25 03:13:15;;;;;;;;;;;10.90;99.90;;;;;;5034413;28;19925;-65
2022/04/25 03:15:43;;;;;;;;;;;10.90;99.90;;;;;;5032383;28;19933;-65
2022/04/25 03:18:10;;;;;;;;;;;10.80;99.90;;;;;;5036068;28;19929;-65
2022/04/25 03:20:38;;;;;;;;;;;10.80;99.90;;;;;;5046543;28;20011;-65
2022/04/25 03:23:05;;;;;;;;;;;10.80;99.90;;;;;;5037332;28;19964;-65
2022/04/25 03:25:32;;;;;;;;;;;10.80;99.90;;;;;;5028628;28;20027;-64
2022/04/25 03:28:00;;;;;;;;;;;10.90;99.90;;;;;;5029403;28;19935;-64
2022/04/25 03:30:27;;;;;;;;;;;10.90;99.90;;;;;;5037386;28;20445;-65
2022/04/25 03:32:56;;;;;;;;;;;10.90;99.90;;;;;;5033641;28;19929;-65
2022/04/25 03:35:23;;;;;;;;;;;10.90;99.90;;;;;;5034175;28;19951;-64
2022/04/25 03:37:50;;;;;;;;;;;10.90;99.90;;;;;;5033230;28;19933;-65
2022/04/25 03:40:18;;;;;;;;;;;11.00;99.90;;;;;;5032858;28;20380;-66
2022/04/25 03:42:46;;;;;;;;;;;11.00;99.90;;;;;;5035576;28;19940;-64
2022/04/25 03:45:16;;;;;;;;;;;10.90;99.90;;;;;;5030865;28;19935;-66
2022/04/25 03:47:46;;;;;;;;;;;11.00;99.90;;;;;;5034965;28;19933;-65
2022/04/25 03:50:14;;;;;;;;;;;11.00;99.90;;;;;;5029972;28;19948;-65
2022/04/25 03:52:42;;;;;;;;;;;11.00;99.90;;;;;;5030786;28;20023;-66
2022/04/25 03:57:59;;;;;;;;;;;11.00;99.90;;;;;;5034024;28;19933;-65
2022/04/25 04:00:26;;;;;;;;;;;11.00;99.90;;;;;;5049623;28;19929;-65
2022/04/25 04:02:54;;;;;;;;;;;11.00;99.90;;;;;;5031772;28;20040;-65
2022/04/25 04:05:21;;;;;;;;;;;11.00;99.90;;;;;;5033211;28;19929;-65
2022/04/25 04:07:50;;;;;;;;;;;11.10;99.90;;;;;;5033207;28;19932;-65
2022/04/25 04:10:19;;;;;;;;;;;11.10;99.90;;;;;;5030767;28;19939;-65
2022/04/25 04:12:46;;;;;;;;;;;11.10;99.90;;;;;;5034866;28;19929;-65
2022/04/25 04:15:13;;;;;;;;;;;11.10;99.90;;;;;;5037598;28;19929;-65
2022/04/25 04:17:41;;;;;;;;;;;11.10;99.90;;;;;;5029654;28;20015;-65
2022/04/25 04:20:08;;;;;;;;;;;11.10;99.90;;;;;;5037887;28;19933;-65
2022/04/25 04:22:36;;;;;;;;;;;11.10;99.90;;;;;;5029860;28;19929;-65
2022/04/25 04:25:05;;;;;;;;;;;11.20;99.90;;;;;;5031955;28;19933;-64
2022/04/25 04:27:32;;;;;;;;;;;11.20;99.90;;;;;;5034828;28;19933;-65
2022/04/25 04:30:00;;;;;;;;;;;11.20;99.90;;;;;;5035435;28;19941;-65
2022/04/25 04:32:30;;;;;;;;;;;11.20;99.90;;;;;;5034798;28;19948;-66
2022/04/25 04:34:57;;;;;;;;;;;11.20;99.90;;;;;;5032639;28;19929;-65
2022/04/25 04:37:25;;;;;;;;;;;11.20;99.90;;;;;;5033308;28;19932;-65
2022/04/25 04:40:28;;;;;;;;;;;11.20;99.90;;;;;;5031958;28;20786;-65
2022/04/25 04:42:39;;;;;;;;;;;11.20;99.90;;;;;;5034508;28;20016;-65
2022/04/25 04:45:07;;;;;;;;;;;11.20;99.90;;;;;;5037304;28;19933;-65
2022/04/25 04:47:38;;;;;;;;;;;11.20;99.90;;;;;;5013005;28;19928;-65
2022/04/25 04:50:07;;;;;;;;;;;11.30;99.90;;;;;;5037804;28;20296;-65
2022/04/25 04:52:34;;;;;;;;;;;11.20;99.90;;;;;;5032973;28;19928;-64
2022/04/25 04:55:01;;;;;;;;;;;11.20;99.90;;;;;;5033106;28;19933;-65
2022/04/25 04:57:27;;;;;;;;;;;11.20;99.90;;;;;;5032346;28;19936;-65
2022/04/25 04:59:54;;;;;;;;;;;11.20;99.90;;;;;;5032012;28;19925;-64
2022/04/25 05:02:21;;;;;;;;;;;11.30;99.90;;;;;;4988281;28;22203;-64
2022/04/25 05:04:50;;;;;;;;;;;11.30;99.90;;;;;;4988270;28;19937;-64
2022/04/25 05:07:17;;;;;;;;;;;11.40;99.90;;;;;;4988490;28;19970;-65
2022/04/25 05:09:44;;;;;;;;;;;11.40;99.90;;;;;;4985933;28;19937;-64
2022/04/25 05:12:11;;;;;;;;;;;11.50;99.90;;;;;;4985074;28;21194;-64
2022/04/25 05:14:38;;;;;;;;;;;11.50;99.90;;;;;;4988132;28;19999;-65
2022/04/25 05:17:05;;;;;;;;;;;11.50;99.90;;;;;;4987695;28;19932;-65
2022/04/25 05:19:32;;;;;;;;;;;11.50;99.90;;;;;;4993834;28;19933;-65
2022/04/25 05:22:00;;;;;;;;;;;11.50;99.90;;;;;;4988224;28;19940;-64
2022/04/25 05:24:27;;;;;;;;;;;11.50;99.90;;;;;;4989886;28;19940;-65
2022/04/25 05:26:54;;;;;;;;;;;11.60;99.90;;;;;;4987792;28;19995;-66
2022/04/25 05:29:21;;;;;;;;;;;11.60;99.90;;;;;;4987311;28;19933;-65
2022/04/25 05:31:49;;;;;;;;;;;11.70;99.90;;;;;;4985866;28;20154;-65
2022/04/25 05:34:25;;;;;;;;;;;11.70;99.90;;;;;;4986617;28;22293;-68
2022/04/25 05:36:52;;;;;;;;;;;11.80;99.90;;;;;;4992253;28;20629;-65
2022/04/25 05:39:19;;;;;;;;;;;11.80;99.90;;;;;;4993223;28;19996;-65
2022/04/25 05:41:46;;;;;;;;;;;11.90;99.90;;;;;;4994150;28;19933;-65
2022/04/25 05:44:13;;;;;;;;;;;12.00;99.90;;;;;;4992140;28;19940;-65
2022/04/25 05:46:40;;;;;;;;;;;12.00;99.90;;;;;;4993932;28;19933;-65
2022/04/25 05:52:00;;;;;;;;;;;12.10;99.90;;;;;;5001030;28;20415;-65
2022/04/25 05:54:27;;;;;;;;;;;12.20;99.90;;;;;;4993752;28;19940;-65
2022/04/25 05:56:54;;;;;;;;;;;12.20;99.90;;;;;;5008685;28;22395;-65
2022/04/25 05:59:21;;;;;;;;;;;12.30;99.90;;;;;;4993674;28;20011;-65
2022/04/25 06:01:48;;;;;;;;;;;12.20;99.90;;;;;;4990365;28;23076;-66
2022/04/25 06:04:15;;;;;;;;;;;12.20;99.90;;;;;;4991968;28;19933;-66
2022/04/25 06:06:42;;;;;;;;;;;12.50;99.90;;;;;;4995717;28;19933;-66
2022/04/25 06:09:09;;;;;;;;;;;12.90;99.90;;;;;;4993637;28;19933;-67
2022/04/25 06:11:36;;;;;;;;;;;13.10;99.90;;;;;;4999334;28;19933;-67
2022/04/25 06:14:03;;;;;;;;;;;13.20;99.90;;;;;;4993210;28;19940;-66
2022/04/25 06:16:30;;;;;;;;;;;13.60;99.90;;;;;;4992561;28;19962;-67
2022/04/25 06:18:57;;;;;;;;;;;13.40;99.10;;;;;;4993218;28;20712;-67
2022/04/25 06:21:25;;;;;;;;;;;13.30;99.90;;;;;;4993139;28;19933;-67
2022/04/25 06:23:52;;;;;;;;;;;13.60;98.50;;;;;;4999779;28;19939;-67
2022/04/25 06:26:19;;;;;;;;;;;13.80;96.10;;;;;;4992996;28;19962;-68
2022/04/25 06:28:45;;;;;;;;;;;14.00;97.10;;;;;;5010474;28;20130;-67
2022/04/25 06:31:12;;;;;;;;;;;14.10;96.30;;;;;;4994545;28;19933;-67
2022/04/25 06:33:40;;;;;;;;;;;14.20;96.90;;;;;;4992565;28;19932;-66
2022/04/25 06:36:07;;;;;;;;;;;14.40;94.80;;;;;;4989310;28;20045;-67
2022/04/25 06:38:34;;;;;;;;;;;14.50;93.20;;;;;;4993777;28;19933;-66
2022/04/25 06:41:02;;;;;;;;;;;14.40;93.10;;;;;;4994685;28;20191;-66
2022/04/25 06:43:31;;;;;;;;;;;14.70;93.80;;;;;;4993947;28;19933;-67
2022/04/25 06:45:58;;;;;;;;;;;14.80;92.30;;;;;;4990115;28;19937;-66
2022/04/25 06:48:25;;;;;;;;;;;14.70;92.10;;;;;;4990203;28;19932;-66
2022/04/25 06:50:55;;;;;;;;;;;14.70;91.70;;;;;;4989195;28;19960;-67
2022/04/25 06:53:22;;;;;;;;;;;14.90;91.60;;;;;;4988817;28;22314;-67
2022/04/25 06:55:49;;;;;;;;;;;15.00;91.10;;;;;;4990462;28;21304;-66
2022/04/25 06:58:16;;;;;;;;;;;15.00;90.00;;;;;;4990866;28;19933;-66
2022/04/25 07:00:43;;;;;;;;;;;15.10;90.80;;;;;;4989790;28;19933;-67
2022/04/25 07:03:10;;;;;;;;;;;15.20;89.80;;;;;;4989996;28;20449;-67
2022/04/25 07:05:37;;;;;;;;;;;15.10;89.50;;;;;;4990695;28;19940;-66
2022/04/25 07:08:04;;;;;;;;;;;15.20;87.90;;;;;;4989230;28;21312;-66
2022/04/25 07:10:31;;;;;;;;;;;15.20;87.40;;;;;;4997904;28;19933;-66
2022/04/25 07:12:59;;;;;;;;;;;15.40;87.30;;;;;;4982005;28;19977;-66
2022/04/25 07:15:26;;;;;;;;;;;15.40;86.10;;;;;;4987554;28;20685;-67
2022/04/25 07:17:56;;;;;;;;;;;15.70;87.80;;;;;;4978585;28;19933;-67
2022/04/25 07:20:23;;;;;;;;;;;15.90;86.50;;;;;;4986857;28;20327;-67
2022/04/25 07:31:07;;;;;;;;;;;15.00;88.80;;;;;;5006674;28;19932;-67
2022/04/25 07:33:36;;;;;;;;;;;14.70;88.00;;;;;;4990762;28;19933;-66
2022/04/25 07:36:03;;;;;;;;;;;14.60;89.20;;;;;;4990651;28;19940;-66
2022/04/25 07:38:30;;;;;;;;;;;14.50;90.20;;;;;;4990788;28;20346;-67
2022/04/25 07:40:57;;;;;;;;;;;14.40;90.80;;;;;;4991166;28;19982;-67
2022/04/25 07:43:24;;;;;;;;;;;14.50;90.50;;;;;;4989656;28;19932;-67
2022/04/25 07:45:52;;;;;;;;;;;14.60;90.50;;;;;;4993985;28;20035;-67
2022/04/25 07:48:19;;;;;;;;;;;14.60;90.90;;;;;;4990091;28;19933;-67
2022/04/25 07:50:46;;;;;;;;;;;15.00;91.40;;;;;;4990783;28;19937;-67
2022/04/25 07:53:14;;;;;;;;;;;15.30;90.30;;;;;;5005150;28;22306;-66
2022/04/25 07:55:41;;;;;;;;;;;15.70;88.30;;;;;;4990343;28;19933;-67
2022/04/25 07:58:08;;;;;;;;;;;15.70;88.10;;;;;;5005300;28;19932;-67
2022/04/25 08:00:35;;;;;;;;;;;15.70;86.80;;;;;;4989312;28;19933;-67
2022/04/25 08:03:04;;;;;;;;;;;15.60;89.10;;;;;;4991334;28;20627;-67
2022/04/25 08:05:31;;;;;;;;;;;15.60;87.60;;;;;;4991006;28;19933;-67
2022/04/25 08:07:58;;;;;;;;;;;15.50;88.40;;;;;;4989368;28;19933;-65
2022/04/25 08:10:25;;;;;;;;;;;16.00;89.90;;;;;;4989462;28;20588;-67
2022/04/25 08:18:23;;;;;;;;;;;16.60;83.30;;;;;;4990896;28;19933;-67
2022/04/25 08:20:50;;;;;;;;;;;16.50;79.60;;;;;;4988066;28;19933;-67
2022/04/25 08:23:17;;;;;;;;;;;16.40;82.50;;;;;;4988501;28;19933;-67
2022/04/25 08:25:44;;;;;;;;;;;15.90;82.90;;;;;;4985323;28;19932;-67
2022/04/25 08:28:14;;;;;;;;;;;16.10;82.50;;;;;;4991127;28;19940;-67
2022/04/25 08:30:41;;;;;;;;;;;16.40;82.00;;;;;;4988627;28;20094;-67
2022/04/25 08:33:10;;;;;;;;;;;16.80;81.40;;;;;;4988250;28;19975;-67
2022/04/25 08:35:38;;;;;;;;;;;17.20;80.90;;;;;;4987902;28;19933;-68
2022/04/25 08:38:05;;;;;;;;;;;17.20;81.40;;;;;;4987717;28;19986;-67
2022/04/25 08:40:32;;;;;;;;;;;17.50;82.20;;;;;;5004920;28;20016;-67
2022/04/25 08:43:03;;;;;;;;;;;17.20;76.70;;;;;;4989228;28;19933;-67
2022/04/25 08:45:32;;;;;;;;;;;16.90;77.80;;;;;;4988244;28;22302;-67
2022/04/25 08:48:00;;;;;;;;;;;16.90;77.00;;;;;;4989262;28;20048;-67
2022/04/25 08:50:27;;;;;;;;;;;17.20;77.80;;;;;;4986294;28;19941;-67
2022/04/25 08:52:56;;;;;;;;;;;17.40;78.90;;;;;;4984882;28;20176;-67
2022/04/25 08:55:23;;;;;;;;;;;17.70;78.50;;;;;;4976641;28;19933;-68
2022/04/25 08:57:51;;;;;;;;;;;17.90;76.10;;;;;;5003709;28;19940;-67
2022/04/25 09:00:18;;;;;;;;;;;17.50;78.30;;;;;;4990260;28;19939;-67
2022/04/25 09:02:46;;;;;;;;;;;17.00;77.00;;;;;;4988650;28;19933;-67
2022/04/25 09:05:13;;;;;;;;;;;17.30;79.40;;;;;;4987622;28;22282;-67
2022/04/25 09:07:41;;;;;;;;;;;17.70;76.10;;;;;;5002806;28;19939;-67
2022/04/25 09:10:09;;;;;;;;;;;17.80;74.60;;;;;;4987196;28;19939;-64
2022/04/25 09:12:36;;;;;;;;;;;17.90;74.60;;;;;;5003543;28;20028;-67
2022/04/25 09:15:04;;;;;;;;;;;18.20;73.80;;;;;;4988790;28;19940;-66
2022/04/25 09:17:51;;;;;;;;;;;18.40;71.80;;;;;;4993893;28;22413;-66
2022/04/25 09:20:20;;;;;;;;;;;18.50;74.00;;;;;;4987997;28;19983;-67
2022/04/25 09:22:48;;;;;;;;;;;18.70;72.50;;;;;;4989605;28;20073;-67
2022/04/25 09:25:16;;;;;;;;;;;18.40;73.70;;;;;;4987818;28;19940;-66
2022/04/25 09:28:08;;;;;;;;;;;18.60;73.30;;;;;;4985874;28;19933;-67
2022/04/25 09:30:35;;;;;;;;;;;18.50;69.00;;;;;;4995413;28;19971;-65
2022/04/25 09:33:03;;;;;;;;;;;18.10;71.00;;;;;;4988684;28;20339;-66
2022/04/25 09:35:37;;;;;;;;;;;17.90;71.60;;;;;;4988712;28;20031;-66
2022/04/25 09:38:05;;;;;;;;;;;17.60;74.20;;;;;;4989710;28;20754;-66
2022/04/25 09:40:33;;;;;;;;;;;17.70;73.20;;;;;;4986468;28;22340;-66
2022/04/25 09:43:03;;;;;;;;;;;18.10;72.30;;;;;;4987425;28;21800;-67
2022/04/25 09:45:32;;;;;;;;;;;18.60;69.80;;;;;;4988564;28;20034;-66
2022/04/25 09:47:59;;;;;;;;;;;18.40;67.30;;;;;;5002109;28;20419;-67
2022/04/25 09:50:27;;;;;;;;;;;17.80;69.00;;;;;;4978713;28;19940;-68
2022/04/25 09:53:13;;;;;;;;;;;17.50;70.20;;;;;;4988633;28;20580;-67
2022/04/25 09:55:40;;;;;;;;;;;17.40;70.00;;;;;;4989168;28;20317;-68
2022/04/25 09:58:13;;;;;;;;;;;17.10;70.90;;;;;;4987299;28;19949;-67
2022/04/25 10:00:40;;;;;;;;;;;17.70;70.70;;;;;;4987702;28;22320;-66
2022/04/25 10:03:08;;;;;;;;;;;18.10;68.50;;;;;;4988026;28;20485;-66
2022/04/25 10:05:37;;;;;;;;;;;18.40;65.70;;;;;;4988036;28;19940;-65
2022/04/25 10:08:05;;;;;;;;;;;18.50;67.70;;;;;;4986490;28;19933;-66
2022/04/25 10:10:33;;;;;;;;;;;18.80;69.40;;;;;;4988554;28;22399;-66
2022/04/25 10:13:01;;;;;;;;;;;19.30;67.40;;;;;;5004114;28;20055;-67
2022/04/25 10:15:28;;;;;;;;;;;19.50;65.40;;;;;;4994567;28;19933;-65
2022/04/25 10:17:55;;;;;;;;;;;19.10;64.80;;;;;;4984765;28;19979;-66
2022/04/25 10:20:23;;;;;;;;;;;19.10;65.40;;;;;;4989229;28;19933;-69
2022/04/25 10:22:50;;;;;;;;;;;19.20;65.30;;;;;;4988014;28;20065;-66
2022/04/25 10:25:17;;;;;;;;;;;19.50;63.80;;;;;;5006426;28;19933;-67
2022/04/25 10:27:46;;;;;;;;;;;19.10;62.40;;;;;;5006242;28;19933;-67
2022/04/25 10:30:17;;;;;;;;;;;19.10;64.30;;;;;;4991493;28;22364;-67
2022/04/25 10:32:45;;;;;;;;;;;19.40;63.40;;;;;;4992831;28;19933;-66
2022/04/25 10:35:13;;;;;;;;;;;19.60;64.40;;;;;;4989410;28;19932;-66
2022/04/25 10:37:42;;;;;;;;;;;19.30;62.70;;;;;;4989507;28;19933;-66
2022/04/25 10:40:13;;;;;;;;;;;18.40;64.70;;;;;;4988919;28;19939;-66
2022/04/25 10:45:59;;;;;;;;;;;17.80;66.20;;;;;;4975004;28;19933;-67
2022/04/25 10:48:27;;;;;;;;;;;18.10;66.70;;;;;;5002529;28;20680;-67
2022/04/25 10:51:09;;;;;;;;;;;18.50;64.70;;;;;;4989041;28;24502;-66
2022/04/25 10:53:54;;;;;;;;;;;18.60;64.50;;;;;;4990123;28;20620;-65
2022/04/25 10:56:21;;;;;;;;;;;18.10;63.60;;;;;;4991568;28;19971;-66
2022/04/25 10:59:11;;;;;;;;;;;17.90;63.30;;;;;;4987127;28;19940;-67
2022/04/25 11:01:43;;;;;;;;;;;17.70;63.00;;;;;;4984126;28;19933;-66
2022/04/25 11:04:13;;;;;;;;;;;17.60;65.60;;;;;;4988089;28;19933;-65
2022/04/25 11:06:40;;;;;;;;;;;17.60;67.70;;;;;;4990066;28;21022;-66
2022/04/25 11:09:07;;;;;;;;;;;17.50;66.40;;;;;;4989120;28;19978;-65
2022/04/25 11:11:47;;;;;;;;;;;17.40;67.00;;;;;;4991808;28;21976;-67
2022/04/25 11:14:15;;;;;;;;;;;17.70;66.10;;;;;;4996398;28;20067;-66
2022/04/25 11:16:42;;;;;;;;;;;18.00;66.10;;;;;;4990390;28;19933;-65
2022/04/25 11:19:11;;;;;;;;;;;18.40;63.90;;;;;;4989985;28;19959;-67
2022/04/25 11:21:45;;;;;;;;;;;19.00;63.00;;;;;;4992727;28;19988;-66
2022/04/25 11:24:28;;;;;;;;;;;18.90;61.60;;;;;;4990374;28;19932;-66
2022/04/25 11:26:57;;;;;;;;;;;18.90;62.70;;;;;;4987442;28;20396;-66
2022/04/25 11:29:24;;;;;;;;;;;18.50;62.00;;;;;;4984310;28;19940;-66
2022/04/25 11:31:51;;;;;;;;;;;18.20;61.30;;;;;;4986921;28;20063;-68
2022/04/25 11:34:22;;;;;;;;;;;18.10;64.10;;;;;;4975711;28;19957;-67
2022/04/25 11:36:49;;;;;;;;;;;18.20;63.60;;;;;;5001240;28;20006;-66
2022/04/25 11:42:06;;;;;;;;;;;19.60;62.70;;;;;;4983888;28;19933;-66
2022/04/25 11:44:35;;;;;;;;;;;19.90;60.40;;;;;;4984600;28;20971;-67
2022/04/25 11:47:02;;;;;;;;;;;19.40;60.80;;;;;;4988191;28;19932;-66
2022/04/25 11:49:30;;;;;;;;;;;19.80;60.00;;;;;;4988183;28;19937;-67
2022/04/25 11:52:00;;;;;;;;;;;20.10;62.00;;;;;;4988112;28;20029;-66
2022/04/25 11:54:30;;;;;;;;;;;19.80;58.30;;;;;;4985484;28;19934;-67
2022/04/25 11:57:02;;;;;;;;;;;19.20;59.30;;;;;;5003645;28;19959;-66
2022/04/25 11:59:29;;;;;;;;;;;19.00;62.00;;;;;;5002426;28;20043;-67
2022/04/25 12:01:57;;;;;;;;;;;19.40;59.70;;;;;;4990126;28;19933;-66
2022/04/25 12:04:27;;;;;;;;;;;19.40;59.70;;;;;;4985738;28;20070;-67
2022/04/25 12:07:02;;;;;;;;;;;19.80;59.00;;;;;;5002739;28;21124;-67
2022/04/25 12:18:36;;;;;;;;;;;19.60;57.00;;;;;;5004679;28;20591;-68
2022/04/25 12:21:05;;;;;;;;;;;19.80;59.00;;;;;;4957422;28;20328;-66
2022/04/25 12:23:33;;;;;;;;;;;19.40;57.80;;;;;;4974444;28;20036;-67
2022/04/25 12:26:03;;;;;;;;;;;19.50;57.60;;;;;;4982255;28;20764;-66
2022/04/25 12:28:31;;;;;;;;;;;19.90;57.10;;;;;;4988119;28;19940;-66
2022/04/25 12:31:04;;;;;;;;;;;20.10;57.00;;;;;;4989367;28;19940;-67
2022/04/25 12:33:44;;;;;;;;;;;19.80;56.90;;;;;;4988978;28;19932;-66
2022/04/25 12:36:21;;;;;;;;;;;19.50;57.40;;;;;;4986368;28;20047;-66
2022/04/25 12:38:53;;;;;;;;;;;19.50;55.40;;;;;;4987207;28;19999;-66
2022/04/25 12:41:33;;;;;;;;;;;19.50;57.70;;;;;;4987582;28;20115;-67
2022/04/25 12:44:09;;;;;;;;;;;20.00;57.10;;;;;;4987989;28;19933;-67
2022/04/25 12:46:43;;;;;;;;;;;19.80;57.40;;;;;;4971119;28;19933;-66
2022/04/25 12:49:13;;;;;;;;;;;19.90;57.00;;;;;;4986658;28;20719;-65
2022/04/25 12:51:43;;;;;;;;;;;20.30;56.40;;;;;;4988023;28;19933;-67
2022/04/25 12:54:20;;;;;;;;;;;20.50;53.90;;;;;;4986399;28;20119;-68
2022/04/25 12:56:48;;;;;;;;;;;20.50;55.20;;;;;;4994924;28;20658;-66
2022/04/25 12:59:28;;;;;;;;;;;20.70;55.50;;;;;;4978445;28;19936;-66
2022/04/25 13:02:04;;;;;;;;;;;20.60;53.80;;;;;;4987018;28;19933;-66
2022/04/25 13:04:32;;;;;;;;;;;20.60;55.20;;;;;;4986208;28;20004;-66
2022/04/25 13:07:01;;;;;;;;;;;20.10;55.30;;;;;;5000994;28;20078;-66
2022/04/25 13:09:28;;;;;;;;;;;19.50;57.00;;;;;;4986580;28;19940;-65
2022/04/25 13:11:55;;;;;;;;;;;19.00;57.10;;;;;;4985557;28;19940;-66
2022/04/25 13:14:22;;;;;;;;;;;19.10;56.80;;;;;;4987191;28;20849;-65
2022/04/25 13:16:49;;;;;;;;;;;19.50;57.60;;;;;;4989301;28;19932;-66
2022/04/25 13:19:16;;;;;;;;;;;19.30;55.30;;;;;;4987234;28;20592;-66
2022/04/25 13:21:43;;;;;;;;;;;19.60;54.30;;;;;;4987824;28;19940;-65
2022/04/25 13:24:10;;;;;;;;;;;20.20;54.10;;;;;;4988969;28;19934;-65
2022/04/25 13:26:37;;;;;;;;;;;19.80;54.40;;;;;;4987453;28;19933;-65
2022/04/25 13:29:04;;;;;;;;;;;19.50;55.40;;;;;;4985272;28;19937;-66
2022/04/25 13:31:31;;;;;;;;;;;19.50;54.10;;;;;;4987106;28;19933;-66
2022/04/25 13:33:59;;;;;;;;;;;19.70;53.60;;;;;;4987673;28;19940;-64
2022/04/25 13:36:26;;;;;;;;;;;19.70;54.40;;;;;;4988011;28;19939;-65
2022/04/25 13:38:53;;;;;;;;;;;19.80;55.20;;;;;;5000947;28;20016;-66
2022/04/25 13:41:20;;;;;;;;;;;20.00;53.20;;;;;;4988946;28;19967;-66
2022/04/25 13:43:49;;;;;;;;;;;19.60;53.40;;;;;;5002321;28;19940;-67
2022/04/25 13:46:18;;;;;;;;;;;19.90;53.40;;;;;;4988376;28;19933;-66
2022/04/25 13:48:45;;;;;;;;;;;19.70;53.00;;;;;;4985981;28;19959;-66
2022/04/25 13:51:12;;;;;;;;;;;19.80;54.50;;;;;;4982617;28;20621;-66
2022/04/25 13:53:39;;;;;;;;;;;19.80;55.30;;;;;;4986394;28;22470;-67
2022/04/25 13:56:07;;;;;;;;;;;20.10;54.40;;;;;;4986750;28;19940;-66
2022/04/25 13:58:38;;;;;;;;;;;19.90;52.70;;;;;;4990109;28;19937;-67
2022/04/25 14:01:05;;;;;;;;;;;19.80;52.20;;;;;;4993047;28;19933;-66
2022/04/25 14:03:33;;;;;;;;;;;19.80;52.60;;;;;;4996830;28;19940;-66
2022/04/25 14:06:01;;;;;;;;;;;19.60;52.70;;;;;;4989264;28;19972;-67
2022/04/25 14:08:28;;;;;;;;;;;19.80;53.70;;;;;;4988182;28;19956;-66
2022/04/25 14:10:55;;;;;;;;;;;19.60;53.00;;;;;;5002779;28;20592;-66
2022/04/25 14:13:24;;;;;;;;;;;19.80;53.30;;;;;;4992219;28;19940;-66
2022/04/25 14:15:51;;;;;;;;;;;19.90;53.40;;;;;;4987424;28;19933;-66
2022/04/25 14:18:21;;;;;;;;;;;19.80;53.70;;;;;;4988373;28;20015;-67
2022/04/25 14:20:48;;;;;;;;;;;20.00;53.60;;;;;;4992467;28;19971;-67
2022/04/25 14:23:15;;;;;;;;;;;19.90;53.80;;;;;;4991712;28;19940;-67
2022/04/25 14:25:42;;;;;;;;;;;19.80;53.50;;;;;;4991953;28;20651;-67
2022/04/25 14:28:11;;;;;;;;;;;19.30;54.10;;;;;;4980542;28;19976;-66
2022/04/25 14:30:38;;;;;;;;;;;18.80;54.70;;;;;;4988001;28;19933;-67
2022/04/25 14:33:05;;;;;;;;;;;19.10;56.00;;;;;;4981944;28;19940;-67
2022/04/25 14:35:32;;;;;;;;;;;19.10;55.20;;;;;;4989203;28;19974;-67
2022/04/25 14:38:00;;;;;;;;;;;19.20;54.60;;;;;;4990683;28;20076;-67
2022/04/25 14:40:27;;;;;;;;;;;19.40;54.80;;;;;;4982515;28;19933;-67
2022/04/25 14:42:54;;;;;;;;;;;19.30;54.50;;;;;;4986605;28;19940;-67
2022/04/25 14:45:21;;;;;;;;;;;19.20;55.40;;;;;;4992080;28;19940;-66
2022/04/25 14:47:48;;;;;;;;;;;19.20;54.90;;;;;;5005299;28;19996;-67
2022/04/25 14:55:49;;;;;;;;;;;19.10;55.40;;;;;;4989217;28;19932;-67
2022/04/25 14:58:16;;;;;;;;;;;18.70;56.40;;;;;;4992515;28;19939;-66
2022/04/25 15:00:44;;;;;;;;;;;18.50;56.20;;;;;;4988091;28;19933;-67
2022/04/25 15:03:11;;;;;;;;;;;18.30;56.70;;;;;;4992023;28;20681;-67
2022/04/25 15:05:42;;;;;;;;;;;18.20;56.50;;;;;;4989306;28;20593;-67
2022/04/25 15:08:10;;;;;;;;;;;18.20;57.70;;;;;;4990848;28;19933;-66